createdAt,value
2023-02-23T00:00:22.460Z,10.02
2023-02-23T00:01:25.820Z,10.68
2023-02-23T00:02:28.557Z,9.40
2023-02-23T00:03:30.433Z,9.48
2023-02-23T00:04:33.574Z,9.45
2023-02-23T00:05:37.446Z,10.10
2023-02-23T00:06:40.884Z,10.52
2023-02-23T00:07:43.909Z,9.10
2023-02-23T00:08:47.872Z,10.60
2023-02-23T00:09:50.824Z,9.27
2023-02-23T00:10:58.432Z,9.77
2023-02-23T00:12:00.494Z,9.70
2023-02-23T00:13:04.934Z,8.25
2023-02-23T00:14:08.227Z,9.15
2023-02-23T00:15:11.828Z,8.73
2023-02-23T00:16:15.226Z,9.82
2023-02-23T00:17:18.137Z,9.20
2023-02-23T00:18:20.959Z,8.75
2023-02-23T00:19:24.732Z,9.30
2023-02-23T00:20:27.652Z,9.73
2023-02-23T00:21:32.952Z,8.65
2023-02-23T00:22:34.986Z,7.70
2023-02-23T00:23:38.700Z,8.85
2023-02-23T00:24:42.288Z,9.00
2023-02-23T00:26:05.094Z,8.23
2023-02-23T00:27:07.297Z,8.68
2023-02-23T00:28:10.170Z,8.20
2023-02-23T00:29:17.113Z,7.95
2023-02-23T00:30:21.099Z,8.27
2023-02-23T00:31:25.948Z,8.63
2023-02-23T00:32:28.859Z,9.32
2023-02-23T00:33:31.343Z,8.70
2023-02-23T00:34:35.719Z,9.40
2023-02-23T00:35:38.809Z,8.52
2023-02-23T00:36:44.387Z,8.90
2023-02-23T00:37:49.155Z,9.07
2023-02-23T00:38:54.370Z,8.25
2023-02-23T00:39:56.853Z,8.40
2023-02-23T00:40:59.581Z,8.68
2023-02-23T00:42:03.591Z,8.43
2023-02-23T00:43:06.566Z,8.77
2023-02-23T00:44:08.429Z,8.45
2023-02-23T00:45:12.573Z,8.48
2023-02-23T00:46:16.490Z,9.30
2023-02-23T00:47:19.853Z,8.18
2023-02-23T00:48:24.497Z,8.60
2023-02-23T00:49:27.631Z,8.35
2023-02-23T00:50:29.803Z,8.80
2023-02-23T00:51:32.891Z,8.90
2023-02-23T00:52:36.341Z,8.00
2023-02-23T00:53:39.193Z,10.02
2023-02-23T00:54:41.763Z,8.45
2023-02-23T00:55:44.577Z,8.70
2023-02-23T00:56:46.447Z,9.02
2023-02-23T00:57:49.237Z,8.77
2023-02-23T00:58:53.330Z,8.90
2023-02-23T00:59:56.208Z,10.18
2023-02-23T01:01:00.837Z,8.10
2023-02-23T01:02:03.719Z,9.23
2023-02-23T01:03:05.534Z,8.90
2023-02-23T01:04:08.663Z,8.98
2023-02-23T01:05:11.504Z,8.43
2023-02-23T01:06:15.850Z,9.07
2023-02-23T01:07:17.621Z,8.85
2023-02-23T01:08:22.324Z,8.57
2023-02-23T01:09:27.851Z,8.80
2023-02-23T01:10:31.025Z,9.02
2023-02-23T01:11:32.918Z,9.18
2023-02-23T01:12:35.649Z,8.80
2023-02-23T01:13:37.852Z,9.93
2023-02-23T01:14:42.430Z,9.88
2023-02-23T01:15:48.124Z,8.93
2023-02-23T01:16:50.925Z,9.70
2023-02-23T01:17:52.817Z,8.63
2023-02-23T01:18:56.634Z,9.50
2023-02-23T01:19:59.991Z,9.15
2023-02-23T01:21:03.082Z,9.43
2023-02-23T01:22:05.064Z,9.38
2023-02-23T01:23:08.153Z,9.50
2023-02-23T01:24:12.764Z,9.23
2023-02-23T01:25:16.442Z,9.27
2023-02-23T01:26:19.215Z,9.55
2023-02-23T01:27:22.003Z,10.57
2023-02-23T01:28:23.920Z,10.43
2023-02-23T01:29:26.681Z,10.18
2023-02-23T01:30:29.479Z,9.60
2023-02-23T01:31:32.520Z,10.10
2023-02-23T01:32:35.034Z,11.00
2023-02-23T01:33:57.099Z,9.77
2023-02-23T01:34:59.012Z,10.05
2023-02-23T01:36:02.065Z,9.50
2023-02-23T01:37:04.139Z,10.48
2023-02-23T01:38:08.388Z,10.25
2023-02-23T01:39:14.106Z,10.07
2023-02-23T01:40:28.672Z,9.52
2023-02-23T01:41:32.984Z,11.13
2023-02-23T01:42:39.117Z,9.85
2023-02-23T01:43:56.138Z,10.60
2023-02-23T01:45:24.632Z,9.82
2023-02-23T01:46:27.795Z,9.88
2023-02-23T01:47:30.318Z,10.05
2023-02-23T01:48:37.301Z,9.60
2023-02-23T01:49:40.253Z,9.35
2023-02-23T01:50:47.288Z,9.85
2023-02-23T01:51:59.788Z,10.63
2023-02-23T01:53:04.909Z,10.15
2023-02-23T01:54:10.764Z,10.48
2023-02-23T01:55:23.069Z,9.68
2023-02-23T01:56:27.241Z,9.32
2023-02-23T01:57:30.267Z,10.05
2023-02-23T01:58:33.771Z,9.93
2023-02-23T01:59:40.258Z,10.57
2023-02-23T02:00:48.240Z,9.75
2023-02-23T02:01:51.052Z,10.73
2023-02-23T02:02:53.081Z,10.50
2023-02-23T02:03:57.989Z,10.73
2023-02-23T02:05:00.368Z,9.60
2023-02-23T02:06:06.028Z,10.93
2023-02-23T02:07:08.380Z,10.70
2023-02-23T02:08:11.758Z,10.93
2023-02-23T02:09:17.308Z,10.18
2023-02-23T02:10:39.622Z,10.00
2023-02-23T02:11:44.620Z,10.70
2023-02-23T02:12:51.922Z,10.68
2023-02-23T02:13:55.590Z,11.30
2023-02-23T02:14:59.584Z,11.13
2023-02-23T02:16:13.789Z,10.35
2023-02-23T02:17:27.228Z,11.30
2023-02-23T02:18:38.130Z,10.48
2023-02-23T02:20:06.652Z,10.35
2023-02-23T02:21:23.610Z,10.57
2023-02-23T02:22:48.204Z,11.20
2023-02-23T02:24:02.441Z,10.15
2023-02-23T02:25:24.570Z,10.55
2023-02-23T02:26:34.230Z,10.48
2023-02-23T02:27:50.671Z,11.65
2023-02-23T02:29:19.809Z,10.40
2023-02-23T02:30:46.165Z,10.65
2023-02-23T02:32:17.483Z,10.88
2023-02-23T02:33:34.879Z,10.98
2023-02-23T02:35:03.104Z,11.57
2023-02-23T02:36:33.058Z,11.75
2023-02-23T02:37:47.712Z,11.85
2023-02-23T02:38:54.065Z,11.88
2023-02-23T02:40:15.944Z,11.20
2023-02-23T02:41:21.142Z,12.15
2023-02-23T02:42:31.024Z,11.63
2023-02-23T02:43:38.717Z,12.68
2023-02-23T02:44:50.662Z,12.77
2023-02-23T02:45:55.832Z,13.10
2023-02-23T02:47:02.202Z,12.80
2023-02-23T02:48:08.605Z,12.82
2023-02-23T02:49:17.471Z,13.25
2023-02-23T02:50:22.606Z,12.50
2023-02-23T02:51:28.572Z,12.52
2023-02-23T02:52:35.684Z,13.13
2023-02-23T02:53:45.338Z,12.50
2023-02-23T02:54:49.382Z,12.73
2023-02-23T02:55:52.869Z,12.82
2023-02-23T02:56:57.680Z,13.20
2023-02-23T02:58:03.591Z,12.80
2023-02-23T02:59:06.307Z,12.95
2023-02-23T03:00:30.784Z,12.73
2023-02-23T03:01:51.190Z,12.40
2023-02-23T03:03:11.545Z,12.70
2023-02-23T03:04:39.977Z,13.07
2023-02-23T03:06:04.350Z,11.75
2023-02-23T03:07:29.619Z,12.98
2023-02-23T03:08:56.170Z,12.07
2023-02-23T03:10:22.635Z,12.60
2023-02-23T03:11:44.115Z,12.15
2023-02-23T03:13:15.894Z,12.15
2023-02-23T03:14:43.541Z,11.55
2023-02-23T03:16:14.254Z,11.63
2023-02-23T03:17:46.519Z,11.88
2023-02-23T03:19:19.151Z,11.95
2023-02-23T03:20:44.804Z,12.50
2023-02-23T03:22:09.217Z,12.05
2023-02-23T03:23:36.326Z,12.38
2023-02-23T03:25:00.580Z,11.95
2023-02-23T03:26:25.079Z,11.93
2023-02-23T03:28:01.340Z,11.77
2023-02-23T03:29:26.230Z,11.43
2023-02-23T03:30:56.269Z,12.65
2023-02-23T03:32:22.646Z,12.65
2023-02-23T03:33:48.836Z,11.73
2023-02-23T03:35:13.528Z,13.65
2023-02-23T03:36:38.204Z,12.38
2023-02-23T03:38:00.981Z,12.18
2023-02-23T03:39:24.319Z,13.18
2023-02-23T03:40:46.524Z,12.15
2023-02-23T03:42:09.497Z,13.25
2023-02-23T03:43:32.797Z,11.98
2023-02-23T03:45:00.005Z,11.90
2023-02-23T03:46:21.761Z,12.90
2023-02-23T03:47:44.085Z,12.30
2023-02-23T03:49:06.845Z,12.63
2023-02-23T03:50:30.682Z,13.05
2023-02-23T03:51:53.298Z,12.90
2023-02-23T03:53:16.633Z,12.85
2023-02-23T03:54:39.797Z,13.18
2023-02-23T03:56:02.538Z,13.55
2023-02-23T03:57:26.904Z,13.10
2023-02-23T03:58:50.552Z,13.70
2023-02-23T04:00:13.742Z,13.57
2023-02-23T04:01:34.933Z,13.45
2023-02-23T04:02:56.143Z,13.13
2023-02-23T04:04:16.792Z,12.32
2023-02-23T04:05:38.393Z,13.23
2023-02-23T04:07:02.582Z,13.68
2023-02-23T04:08:26.724Z,12.98
2023-02-23T04:09:47.649Z,12.52
2023-02-23T04:11:12.446Z,14.00
2023-02-23T04:12:40.650Z,13.57
2023-02-23T04:13:44.400Z,13.15
2023-02-23T04:14:54.078Z,13.57
2023-02-23T04:15:57.750Z,13.88
2023-02-23T04:16:59.652Z,14.45
2023-02-23T04:18:04.669Z,15.20
2023-02-23T04:19:06.548Z,14.20
2023-02-23T04:20:12.140Z,15.25
2023-02-23T04:21:14.030Z,14.55
2023-02-23T04:22:16.859Z,13.68
2023-02-23T04:23:40.678Z,14.25
2023-02-23T04:24:42.554Z,14.85
2023-02-23T04:25:45.416Z,15.07
2023-02-23T04:26:47.156Z,13.82
2023-02-23T04:27:51.812Z,15.43
2023-02-23T04:28:53.951Z,15.20
2023-02-23T04:29:56.825Z,15.95
2023-02-23T04:31:00.421Z,16.13
2023-02-23T04:32:02.346Z,15.20
2023-02-23T04:33:05.263Z,15.57
2023-02-23T04:34:07.134Z,15.60
2023-02-23T04:35:11.141Z,15.45
2023-02-23T04:36:13.062Z,15.77
2023-02-23T04:37:17.084Z,15.35
2023-02-23T04:38:18.852Z,17.20
2023-02-23T04:39:21.615Z,15.20
2023-02-23T04:40:24.449Z,16.17
2023-02-23T04:41:27.239Z,16.42
2023-02-23T04:42:29.579Z,16.60
2023-02-23T04:43:33.938Z,16.90
2023-02-23T04:44:35.737Z,15.90
2023-02-23T04:45:38.661Z,16.55
2023-02-23T04:46:41.385Z,15.98
2023-02-23T04:47:44.702Z,15.48
2023-02-23T04:48:46.536Z,15.27
2023-02-23T04:49:49.332Z,17.13
2023-02-23T04:50:52.671Z,15.73
2023-02-23T04:51:55.750Z,16.67
2023-02-23T04:52:57.616Z,16.48
2023-02-23T04:54:00.426Z,16.33
2023-02-23T04:55:03.182Z,16.25
2023-02-23T04:56:07.072Z,16.55
2023-02-23T04:57:09.565Z,16.08
2023-02-23T04:58:13.727Z,17.45
2023-02-23T04:59:17.086Z,15.82
2023-02-23T05:00:20.457Z,15.07
2023-02-23T05:01:22.616Z,16.13
2023-02-23T05:02:25.733Z,15.68
2023-02-23T05:03:27.535Z,15.50
2023-02-23T05:04:30.311Z,15.57
2023-02-23T05:05:32.636Z,16.50
2023-02-23T05:06:35.758Z,15.70
2023-02-23T05:07:38.238Z,15.75
2023-02-23T05:08:41.160Z,15.55
2023-02-23T05:09:42.971Z,15.73
2023-02-23T05:10:47.392Z,15.55
2023-02-23T05:12:09.668Z,14.90
2023-02-23T05:13:11.518Z,15.52
2023-02-23T05:14:15.138Z,17.05
2023-02-23T05:15:18.559Z,14.93
2023-02-23T05:16:21.393Z,14.82
2023-02-23T05:17:23.278Z,15.93
2023-02-23T05:18:26.358Z,15.65
2023-02-23T05:19:28.767Z,15.82
2023-02-23T05:20:31.492Z,15.18
2023-02-23T05:21:33.320Z,15.30
2023-02-23T05:22:36.635Z,15.57
2023-02-23T05:23:38.744Z,15.68
2023-02-23T05:24:41.551Z,16.48
2023-02-23T05:25:43.365Z,18.52
2023-02-23T05:26:46.370Z,16.55
2023-02-23T05:27:48.189Z,19.05
2023-02-23T05:28:51.381Z,18.33
2023-02-23T05:29:53.162Z,17.13
2023-02-23T05:30:57.399Z,16.35
2023-02-23T05:31:59.381Z,17.30
2023-02-23T05:33:02.159Z,15.10
2023-02-23T05:34:04.220Z,15.18
2023-02-23T05:35:08.928Z,14.68
2023-02-23T05:36:11.782Z,15.27
2023-02-23T05:37:14.538Z,15.43
2023-02-23T05:38:16.652Z,14.07
2023-02-23T05:39:19.409Z,14.13
2023-02-23T05:40:21.253Z,13.52
2023-02-23T05:41:24.679Z,15.18
2023-02-23T05:42:26.533Z,14.20
2023-02-23T05:43:29.256Z,15.82
2023-02-23T05:44:31.092Z,14.88
2023-02-23T05:45:34.252Z,13.30
2023-02-23T05:46:37.453Z,15.02
2023-02-23T05:47:40.254Z,14.18
2023-02-23T05:48:43.273Z,14.35
2023-02-23T05:49:46.714Z,15.23
2023-02-23T05:50:48.567Z,14.50
2023-02-23T05:51:51.952Z,13.82
2023-02-23T05:52:54.113Z,14.13
2023-02-23T05:53:57.073Z,15.60
2023-02-23T05:54:58.988Z,16.23
2023-02-23T05:56:02.818Z,14.98
2023-02-23T05:57:04.698Z,15.90
2023-02-23T05:58:07.474Z,16.23
2023-02-23T05:59:09.546Z,16.55
2023-02-23T06:00:14.270Z,17.33
2023-02-23T06:01:17.764Z,15.80
2023-02-23T06:02:22.473Z,17.13
2023-02-23T06:03:25.166Z,16.00
2023-02-23T06:04:27.920Z,17.92
2023-02-23T06:05:29.945Z,16.15
2023-02-23T06:06:32.733Z,15.82
2023-02-23T06:07:34.617Z,16.20
2023-02-23T06:08:37.393Z,15.95
2023-02-23T06:09:39.298Z,15.88
2023-02-23T06:10:42.048Z,16.83
2023-02-23T06:11:44.570Z,16.75
2023-02-23T06:12:47.614Z,15.40
2023-02-23T06:13:49.782Z,17.38
2023-02-23T06:14:52.938Z,17.25
2023-02-23T06:15:55.548Z,18.10
2023-02-23T06:17:00.235Z,19.40
2023-02-23T06:18:03.686Z,17.08
2023-02-23T06:19:06.705Z,18.60
2023-02-23T06:20:10.262Z,19.35
2023-02-23T06:21:13.028Z,19.30
2023-02-23T06:22:17.421Z,19.92
2023-02-23T06:23:20.222Z,20.70
2023-02-23T06:24:23.562Z,20.73
2023-02-23T06:25:25.801Z,19.33
2023-02-23T06:26:28.809Z,19.52
2023-02-23T06:27:30.947Z,20.48
2023-02-23T06:28:34.250Z,19.42
2023-02-23T06:29:37.228Z,22.50
2023-02-23T06:30:40.757Z,22.17
2023-02-23T06:31:43.468Z,22.20
2023-02-23T06:32:46.265Z,20.77
2023-02-23T06:33:53.396Z,21.13
2023-02-23T06:34:56.317Z,22.60
2023-02-23T06:36:00.581Z,21.63
2023-02-23T06:37:02.380Z,22.08
2023-02-23T06:38:06.278Z,22.70
2023-02-23T06:39:09.128Z,21.90
2023-02-23T06:40:11.852Z,23.70
2023-02-23T06:41:14.654Z,24.17
2023-02-23T06:42:16.432Z,22.42
2023-02-23T06:43:19.215Z,22.05
2023-02-23T06:44:22.157Z,22.92
2023-02-23T06:45:25.061Z,20.42
2023-02-23T06:46:26.898Z,21.67
2023-02-23T06:47:29.705Z,20.95
2023-02-23T06:48:32.509Z,21.20
2023-02-23T06:49:35.643Z,21.58
2023-02-23T06:50:38.508Z,24.17
2023-02-23T06:51:40.369Z,22.50
2023-02-23T06:52:43.192Z,20.38
2023-02-23T06:53:45.385Z,22.45
2023-02-23T06:54:48.256Z,22.13
2023-02-23T06:55:50.000Z,22.83
2023-02-23T06:56:53.318Z,22.27
2023-02-23T06:57:55.132Z,21.83
2023-02-23T06:58:57.834Z,22.70
2023-02-23T07:00:01.618Z,21.73
2023-02-23T07:01:04.395Z,21.88
2023-02-23T07:02:07.625Z,22.38
2023-02-23T07:03:09.806Z,21.50
2023-02-23T07:04:14.861Z,19.95
2023-02-23T07:05:19.619Z,19.15
2023-02-23T07:06:22.450Z,19.48
2023-02-23T07:07:24.345Z,18.38
2023-02-23T07:08:27.192Z,18.60
2023-02-23T07:09:30.651Z,18.45
2023-02-23T07:10:34.992Z,17.92
2023-02-23T07:11:36.989Z,18.15
2023-02-23T07:12:39.949Z,17.98
2023-02-23T07:13:42.479Z,18.27
2023-02-23T07:14:45.260Z,19.38
2023-02-23T07:15:47.436Z,17.35
2023-02-23T07:16:50.152Z,17.98
2023-02-23T07:17:53.109Z,18.92
2023-02-23T07:18:56.635Z,17.67
2023-02-23T07:19:59.401Z,18.13
2023-02-23T07:21:02.572Z,18.30
2023-02-23T07:22:05.838Z,17.92
2023-02-23T07:23:07.713Z,17.80
2023-02-23T07:24:10.612Z,16.90
2023-02-23T07:25:13.741Z,16.17
2023-02-23T07:26:17.016Z,17.60
2023-02-23T07:27:19.746Z,17.95
2023-02-23T07:28:21.777Z,14.77
2023-02-23T07:29:25.012Z,16.95
2023-02-23T07:30:26.886Z,15.65
2023-02-23T07:31:30.239Z,15.27
2023-02-23T07:32:32.206Z,14.73
2023-02-23T07:33:35.105Z,15.52
2023-02-23T07:34:38.288Z,15.13
2023-02-23T07:35:40.056Z,15.60
2023-02-23T07:36:44.189Z,15.38
2023-02-23T07:37:46.432Z,15.23
2023-02-23T07:38:49.235Z,15.68
2023-02-23T07:39:51.030Z,14.52
2023-02-23T07:40:54.701Z,14.27
2023-02-23T07:41:56.655Z,16.15
2023-02-23T07:42:59.464Z,15.65
2023-02-23T07:44:01.483Z,15.85
2023-02-23T07:45:04.672Z,16.17
2023-02-23T07:46:06.451Z,14.85
2023-02-23T07:47:09.594Z,15.45
2023-02-23T07:48:12.367Z,16.70
2023-02-23T07:49:14.172Z,17.58
2023-02-23T07:50:17.255Z,14.40
2023-02-23T07:51:19.380Z,14.68
2023-02-23T07:52:23.623Z,16.23
2023-02-23T07:53:27.842Z,15.43
2023-02-23T07:54:30.704Z,15.10
2023-02-23T07:55:32.506Z,13.88
2023-02-23T07:56:35.390Z,13.10
2023-02-23T07:57:39.518Z,14.05
2023-02-23T07:58:42.971Z,14.55
2023-02-23T07:59:46.129Z,15.13
2023-02-23T08:00:48.880Z,13.70
2023-02-23T08:01:51.730Z,14.13
2023-02-23T08:02:54.925Z,13.20
2023-02-23T08:03:56.742Z,13.52
2023-02-23T08:04:59.530Z,13.20
2023-02-23T08:06:01.392Z,13.57
2023-02-23T08:07:04.350Z,14.07
2023-02-23T08:08:07.468Z,13.77
2023-02-23T08:09:11.969Z,13.57
2023-02-23T08:10:13.967Z,15.48
2023-02-23T08:11:17.094Z,14.73
2023-02-23T08:12:20.549Z,13.82
2023-02-23T08:13:23.297Z,11.75
2023-02-23T08:14:25.284Z,12.27
2023-02-23T08:15:28.197Z,12.00
2023-02-23T08:16:31.000Z,12.73
2023-02-23T08:17:33.737Z,11.80
2023-02-23T08:18:35.658Z,12.10
2023-02-23T08:19:38.489Z,12.77
2023-02-23T08:20:41.263Z,13.38
2023-02-23T08:21:43.414Z,11.85
2023-02-23T08:22:49.640Z,12.05
2023-02-23T08:23:54.176Z,12.23
2023-02-23T08:24:56.331Z,12.50
2023-02-23T08:25:59.596Z,12.32
2023-02-23T08:27:02.901Z,11.60
2023-02-23T08:28:06.816Z,12.40
2023-02-23T08:29:09.880Z,13.23
2023-02-23T08:30:14.183Z,13.52
2023-02-23T08:31:19.443Z,13.27
2023-02-23T08:32:22.530Z,12.95
2023-02-23T08:33:25.368Z,12.43
2023-02-23T08:34:27.272Z,12.25
2023-02-23T08:35:31.076Z,12.25
2023-02-23T08:36:34.189Z,12.35
2023-02-23T08:37:36.341Z,13.10
2023-02-23T08:38:39.168Z,13.02
2023-02-23T08:39:44.108Z,12.50
2023-02-23T08:40:46.014Z,12.45
2023-02-23T08:41:48.842Z,13.77
2023-02-23T08:42:51.983Z,13.73
2023-02-23T08:43:54.819Z,12.02
2023-02-23T08:44:57.616Z,12.63
2023-02-23T08:45:59.367Z,12.07
2023-02-23T08:47:04.525Z,11.75
2023-02-23T08:48:06.861Z,11.60
2023-02-23T08:49:11.503Z,13.07
2023-02-23T08:50:14.090Z,11.98
2023-02-23T08:51:17.162Z,13.20
2023-02-23T08:52:19.371Z,11.45
2023-02-23T08:53:23.112Z,13.93
2023-02-23T08:54:25.152Z,12.57
2023-02-23T08:55:29.255Z,13.27
2023-02-23T08:56:31.854Z,12.25
2023-02-23T08:57:35.337Z,11.23
2023-02-23T08:58:37.352Z,12.82
2023-02-23T08:59:59.035Z,11.35
2023-02-23T09:01:02.607Z,10.85
2023-02-23T09:02:04.813Z,11.75
2023-02-23T09:03:08.053Z,13.40
2023-02-23T09:04:10.811Z,11.70
2023-02-23T09:05:12.602Z,11.20
2023-02-23T09:06:18.420Z,13.52
2023-02-23T09:07:23.506Z,11.35
2023-02-23T09:08:26.358Z,12.35
2023-02-23T09:09:28.189Z,14.00
2023-02-23T09:10:33.497Z,13.25
2023-02-23T09:11:35.334Z,13.43
2023-02-23T09:12:38.140Z,12.27
2023-02-23T09:13:40.892Z,12.40
2023-02-23T09:14:43.613Z,12.57
2023-02-23T09:15:45.510Z,10.73
2023-02-23T09:16:48.527Z,12.05
2023-02-23T09:17:50.308Z,14.55
2023-02-23T09:18:53.345Z,11.25
2023-02-23T09:19:55.181Z,11.52
2023-02-23T09:20:58.157Z,11.70
2023-02-23T09:22:00.033Z,11.95
2023-02-23T09:23:02.946Z,11.65
2023-02-23T09:24:05.288Z,12.80
2023-02-23T09:25:10.400Z,12.30
2023-02-23T09:26:14.553Z,11.90
2023-02-23T09:27:17.320Z,11.50
2023-02-23T09:28:40.453Z,10.15
2023-02-23T09:29:44.812Z,10.20
2023-02-23T09:30:46.942Z,10.63
2023-02-23T09:31:52.860Z,9.90
2023-02-23T09:32:56.480Z,12.73
2023-02-23T09:34:00.332Z,10.70
2023-02-23T09:35:02.344Z,9.63
2023-02-23T09:36:07.470Z,9.70
2023-02-23T09:37:10.196Z,10.57
2023-02-23T09:38:12.036Z,12.70
2023-02-23T09:39:14.887Z,10.55
2023-02-23T09:40:19.271Z,9.70
2023-02-23T09:42:00.278Z,10.30
2023-02-23T09:43:07.628Z,9.60
2023-02-23T09:44:15.924Z,8.63
2023-02-23T09:45:25.848Z,9.85
2023-02-23T09:46:34.850Z,10.50
2023-02-23T09:47:44.971Z,10.20
2023-02-23T09:48:46.807Z,9.05
2023-02-23T09:50:16.471Z,9.32
2023-02-23T09:51:22.111Z,8.25
2023-02-23T09:52:29.521Z,8.88
2023-02-23T09:53:36.263Z,9.85
2023-02-23T09:54:38.077Z,8.68
2023-02-23T09:55:42.153Z,9.00
2023-02-23T09:56:45.746Z,8.52
2023-02-23T09:57:50.558Z,9.10
2023-02-23T09:58:54.714Z,9.48
2023-02-23T09:59:56.503Z,9.93
2023-02-23T10:01:12.398Z,8.95
2023-02-23T10:02:24.753Z,8.50
2023-02-23T10:03:28.372Z,8.60
2023-02-23T10:04:32.553Z,8.18
2023-02-23T10:05:39.838Z,8.57
2023-02-23T10:06:46.683Z,8.80
2023-02-23T10:07:52.511Z,8.20
2023-02-23T10:09:07.171Z,9.10
2023-02-23T10:10:21.207Z,8.35
2023-02-23T10:11:31.070Z,9.18
2023-02-23T10:12:36.888Z,9.93
2023-02-23T10:13:45.839Z,10.55
2023-02-23T10:15:01.687Z,9.18
2023-02-23T10:16:09.973Z,8.15
2023-02-23T10:17:20.163Z,8.82
2023-02-23T10:18:45.370Z,10.48
2023-02-23T10:19:53.942Z,8.07
2023-02-23T10:21:00.844Z,7.90
2023-02-23T10:22:04.774Z,8.07
2023-02-23T10:23:11.931Z,10.70
2023-02-23T10:24:19.489Z,8.25
2023-02-23T10:25:25.685Z,9.18
2023-02-23T10:26:31.937Z,8.70
2023-02-23T10:27:40.598Z,8.02
2023-02-23T10:28:44.547Z,7.85
2023-02-23T10:29:51.187Z,7.60
2023-02-23T10:30:56.949Z,15.13
2023-02-23T10:32:02.071Z,8.70
2023-02-23T10:33:08.614Z,9.35
2023-02-23T10:34:13.539Z,9.18
2023-02-23T10:35:19.267Z,9.05
2023-02-23T10:36:30.602Z,7.40
2023-02-23T10:37:33.395Z,8.77
2023-02-23T10:38:35.292Z,8.27
2023-02-23T10:39:38.145Z,8.75
2023-02-23T10:40:42.430Z,10.60
2023-02-23T10:41:44.509Z,8.25
2023-02-23T10:42:47.313Z,8.68
2023-02-23T10:43:49.206Z,7.68
2023-02-23T10:44:51.996Z,8.15
2023-02-23T10:45:56.442Z,7.80
2023-02-23T10:47:00.992Z,9.15
2023-02-23T10:48:06.879Z,8.27
2023-02-23T10:49:12.525Z,8.88
2023-02-23T10:50:15.403Z,9.30
2023-02-23T10:51:20.597Z,8.82
2023-02-23T10:52:28.643Z,8.98
2023-02-23T10:53:35.578Z,8.73
2023-02-23T10:54:47.415Z,9.73
2023-02-23T10:56:03.334Z,9.43
2023-02-23T10:57:07.286Z,14.75
2023-02-23T10:58:17.166Z,11.63
2023-02-23T10:59:21.077Z,8.25
2023-02-23T11:00:30.472Z,8.13
2023-02-23T11:01:43.787Z,9.98
2023-02-23T11:02:48.290Z,7.80
2023-02-23T11:04:05.414Z,8.32
2023-02-23T11:05:29.037Z,7.70
2023-02-23T11:06:33.710Z,7.68
2023-02-23T11:07:35.464Z,8.55
2023-02-23T11:08:39.522Z,8.60
2023-02-23T11:09:47.182Z,7.97
2023-02-23T11:10:58.872Z,7.85
2023-02-23T11:12:03.646Z,7.78
2023-02-23T11:13:06.456Z,10.13
2023-02-23T11:14:17.860Z,7.97
2023-02-23T11:15:46.485Z,7.53
2023-02-23T11:16:54.768Z,7.65
2023-02-23T11:17:58.127Z,7.40
2023-02-23T11:19:02.235Z,7.72
2023-02-23T11:20:06.912Z,8.00
2023-02-23T11:21:12.009Z,7.78
2023-02-23T11:22:22.255Z,7.60
2023-02-23T11:23:28.991Z,7.53
2023-02-23T11:24:35.339Z,7.53
2023-02-23T11:25:38.642Z,9.27
2023-02-23T11:26:43.443Z,7.95
2023-02-23T11:27:47.436Z,7.55
2023-02-23T11:28:52.665Z,8.57
2023-02-23T11:30:14.508Z,8.88
2023-02-23T11:31:19.930Z,8.32
2023-02-23T11:32:28.764Z,7.55
2023-02-23T11:33:35.718Z,8.52
2023-02-23T11:34:40.767Z,7.20
2023-02-23T11:35:42.665Z,8.40
2023-02-23T11:36:45.421Z,7.25
2023-02-23T11:37:47.530Z,7.00
2023-02-23T11:39:01.922Z,7.10
2023-02-23T11:40:20.596Z,11.45
2023-02-23T11:41:25.026Z,8.70
2023-02-23T11:42:33.455Z,9.18
2023-02-23T11:43:36.860Z,7.35
2023-02-23T11:44:38.732Z,8.05
2023-02-23T11:45:47.100Z,7.50
2023-02-23T11:46:50.692Z,7.38
2023-02-23T11:47:56.754Z,7.10
2023-02-23T11:49:01.504Z,6.70
2023-02-23T11:50:04.535Z,7.10
2023-02-23T11:51:07.680Z,7.00
2023-02-23T11:52:15.256Z,7.28
2023-02-23T11:53:19.788Z,6.50
2023-02-23T11:54:26.254Z,6.38
2023-02-23T11:55:30.351Z,6.57
2023-02-23T11:56:34.637Z,8.82
2023-02-23T11:57:36.600Z,7.82
2023-02-23T11:58:40.477Z,8.25
2023-02-23T11:59:46.685Z,7.45
2023-02-23T12:00:58.091Z,8.13
2023-02-23T12:02:07.501Z,7.75
2023-02-23T12:03:17.729Z,9.23
2023-02-23T12:04:31.298Z,7.00
2023-02-23T12:05:34.913Z,6.53
2023-02-23T12:06:39.573Z,6.85
2023-02-23T12:07:47.141Z,5.93
2023-02-23T12:08:52.292Z,6.13
2023-02-23T12:10:00.338Z,6.45
2023-02-23T12:11:25.634Z,7.07
2023-02-23T12:12:29.892Z,6.80
2023-02-23T12:13:36.376Z,6.68
2023-02-23T12:14:41.502Z,7.38
2023-02-23T12:15:49.718Z,6.50
2023-02-23T12:16:55.986Z,6.82
2023-02-23T12:18:01.408Z,6.35
2023-02-23T12:19:09.286Z,6.57
2023-02-23T12:20:16.494Z,8.07
2023-02-23T12:21:28.637Z,8.00
2023-02-23T12:22:33.938Z,6.22
2023-02-23T12:23:37.943Z,6.05
2023-02-23T12:24:45.296Z,6.38
2023-02-23T12:25:51.783Z,6.00
2023-02-23T12:26:55.768Z,6.05
2023-02-23T12:28:18.108Z,5.47
2023-02-23T12:29:24.594Z,5.88
2023-02-23T12:30:33.271Z,6.72
2023-02-23T12:31:40.507Z,9.93
2023-02-23T12:32:47.813Z,5.97
2023-02-23T12:33:55.060Z,6.60
2023-02-23T12:35:02.405Z,6.93
2023-02-23T12:36:14.321Z,6.10
2023-02-23T12:37:28.937Z,7.30
2023-02-23T12:38:39.866Z,7.20
2023-02-23T12:39:44.649Z,6.72
2023-02-23T12:40:48.029Z,6.88
2023-02-23T12:41:57.702Z,5.97
2023-02-23T12:43:04.274Z,5.88
2023-02-23T12:44:15.382Z,6.38
2023-02-23T12:45:22.641Z,6.18
2023-02-23T12:46:27.740Z,6.78
2023-02-23T12:47:34.311Z,8.10
2023-02-23T12:48:43.307Z,7.32
2023-02-23T12:49:50.248Z,7.78
2023-02-23T12:50:56.504Z,6.80
2023-02-23T12:52:02.102Z,6.97
2023-02-23T12:53:12.373Z,7.90
2023-02-23T12:54:16.593Z,9.25
2023-02-23T12:55:25.754Z,6.90
2023-02-23T12:56:36.990Z,6.00
2023-02-23T12:57:44.839Z,8.15
2023-02-23T12:58:52.186Z,6.80
2023-02-23T13:00:30.929Z,7.40
2023-02-23T13:01:37.923Z,7.03
2023-02-23T13:02:43.237Z,6.78
2023-02-23T13:04:04.972Z,8.20
2023-02-23T13:05:16.822Z,8.18
2023-02-23T13:06:30.342Z,7.30
2023-02-23T13:07:41.972Z,8.25
2023-02-23T13:09:00.177Z,8.00
2023-02-23T13:10:12.948Z,7.55
2023-02-23T13:11:22.358Z,10.25
2023-02-23T13:12:31.840Z,8.35
2023-02-23T13:13:38.470Z,7.68
2023-02-23T13:14:44.452Z,7.25
2023-02-23T13:15:57.303Z,11.02
2023-02-23T13:17:04.075Z,7.75
2023-02-23T13:18:11.137Z,7.53
2023-02-23T13:19:18.592Z,7.10
2023-02-23T13:20:25.395Z,7.28
2023-02-23T13:21:31.807Z,6.90
2023-02-23T13:22:37.961Z,6.97
2023-02-23T13:23:44.261Z,7.80
2023-02-23T13:24:47.977Z,10.63
2023-02-23T13:25:57.522Z,8.40
2023-02-23T13:27:02.473Z,8.93
2023-02-23T13:28:04.892Z,7.50
2023-02-23T13:29:12.107Z,8.32
2023-02-23T13:30:16.380Z,8.30
2023-02-23T13:31:24.687Z,8.38
2023-02-23T13:32:29.281Z,9.88
2023-02-23T13:33:43.645Z,8.20
2023-02-23T13:34:52.434Z,10.38
2023-02-23T13:35:54.316Z,8.50
2023-02-23T13:37:00.174Z,9.50
2023-02-23T13:38:09.696Z,8.98
2023-02-23T13:39:37.140Z,7.70
2023-02-23T13:40:45.463Z,7.75
2023-02-23T13:41:52.271Z,7.78
2023-02-23T13:43:06.887Z,7.80
2023-02-23T13:44:15.911Z,8.25
2023-02-23T13:45:27.642Z,8.20
2023-02-23T13:46:39.867Z,7.35
2023-02-23T13:47:49.056Z,6.75
2023-02-23T13:48:59.302Z,7.55
2023-02-23T13:50:05.571Z,6.68
2023-02-23T13:51:15.096Z,8.30
2023-02-23T13:52:29.250Z,8.48
2023-02-23T13:53:39.855Z,7.57
2023-02-23T13:54:53.365Z,8.32
2023-02-23T13:55:59.019Z,9.27
2023-02-23T13:57:03.941Z,6.72
2023-02-23T13:58:10.706Z,7.53
2023-02-23T13:59:18.801Z,7.35
2023-02-23T14:00:21.736Z,7.13
2023-02-23T14:01:28.810Z,7.35
2023-02-23T14:02:39.007Z,7.05
2023-02-23T14:03:54.530Z,8.05
2023-02-23T14:04:57.545Z,7.80
2023-02-23T14:06:01.996Z,7.82
2023-02-23T14:07:06.429Z,7.75
2023-02-23T14:08:21.673Z,7.95
2023-02-23T14:09:29.165Z,7.70
2023-02-23T14:10:37.418Z,7.75
2023-02-23T14:11:49.122Z,7.68
2023-02-23T14:13:05.655Z,7.65
2023-02-23T14:14:11.070Z,7.85
2023-02-23T14:15:41.375Z,7.88
2023-02-23T14:16:46.445Z,7.63
2023-02-23T14:18:22.186Z,8.88
2023-02-23T14:19:37.372Z,7.47
2023-02-23T14:20:46.634Z,8.75
2023-02-23T14:21:52.369Z,7.80
2023-02-23T14:23:17.412Z,7.95
2023-02-23T14:24:22.506Z,8.05
2023-02-23T14:25:47.371Z,7.80
2023-02-23T14:27:40.765Z,7.63
2023-02-23T14:28:45.701Z,8.07
2023-02-23T14:30:17.592Z,7.70
2023-02-23T14:31:23.248Z,6.72
2023-02-23T14:32:31.742Z,7.70
2023-02-23T14:33:35.158Z,8.70
2023-02-23T14:34:46.441Z,7.72
2023-02-23T14:35:49.688Z,8.90
2023-02-23T14:36:55.562Z,8.25